createdAt,value
2018-07-02T00:00:12.723Z,13.57
2018-07-02T00:02:49.391Z,13.70
2018-07-02T00:07:38.388Z,13.52
2018-07-02T00:10:15.009Z,13.33
2018-07-02T00:12:51.003Z,13.48
2018-07-02T00:15:27.230Z,13.36
2018-07-02T00:18:02.840Z,13.32
2018-07-02T00:20:38.459Z,13.08
2018-07-02T00:23:14.420Z,13.07
2018-07-02T00:25:49.990Z,12.81
2018-07-02T00:28:26.184Z,12.78
2018-07-02T00:31:01.635Z,12.96
2018-07-02T00:33:37.746Z,12.86
2018-07-02T00:36:14.165Z,12.56
2018-07-02T00:38:50.783Z,12.40
2018-07-02T00:41:28.179Z,12.43
2018-07-02T00:44:04.235Z,12.43
2018-07-02T00:46:40.314Z,12.54
2018-07-02T00:49:15.743Z,12.57
2018-07-02T00:51:52.285Z,12.74
2018-07-02T00:54:28.232Z,12.87
2018-07-02T00:57:05.693Z,12.78
2018-07-02T00:59:41.524Z,12.78
2018-07-02T01:02:17.073Z,12.70
2018-07-02T01:04:54.017Z,12.41
2018-07-02T01:07:30.093Z,12.20
2018-07-02T01:10:06.040Z,12.15
2018-07-02T01:12:42.413Z,12.03
2018-07-02T01:15:19.201Z,12.08
2018-07-02T01:17:55.063Z,12.14
2018-07-02T01:20:32.433Z,12.01
2018-07-02T01:23:09.050Z,12.17
2018-07-02T01:25:46.265Z,12.11
2018-07-02T01:28:22.862Z,12.18
2018-07-02T01:30:59.372Z,12.14
2018-07-02T01:33:35.676Z,12.06
2018-07-02T01:36:12.144Z,12.12
2018-07-02T01:38:48.251Z,11.98
2018-07-02T01:41:24.344Z,11.83
2018-07-02T01:44:01.464Z,11.89
2018-07-02T01:46:37.437Z,11.90
2018-07-02T01:49:14.280Z,12.12
2018-07-02T01:51:50.796Z,11.93
2018-07-02T01:54:27.608Z,11.74
2018-07-02T01:57:03.742Z,11.63
2018-07-02T01:59:39.912Z,11.39
2018-07-02T02:02:15.620Z,11.29
2018-07-02T02:04:51.208Z,11.30
2018-07-02T02:07:26.782Z,11.26
2018-07-02T02:10:02.312Z,11.06
2018-07-02T02:12:39.404Z,11.05
2018-07-02T02:15:15.108Z,11.19
2018-07-02T02:17:51.255Z,11.08
2018-07-02T02:20:27.183Z,10.89
2018-07-02T02:23:02.693Z,10.85
2018-07-02T02:25:39.314Z,10.74
2018-07-02T02:28:15.684Z,10.97
2018-07-02T02:30:52.808Z,11.28
2018-07-02T02:33:28.816Z,11.22
2018-07-02T02:36:05.898Z,10.93
2018-07-02T02:38:41.894Z,10.97
2018-07-02T02:41:18.098Z,10.56
2018-07-02T02:43:54.166Z,10.47
2018-07-02T02:46:31.734Z,10.30
2018-07-02T02:49:07.622Z,10.20
2018-07-02T02:51:43.573Z,10.37
2018-07-02T02:54:20.970Z,10.32
2018-07-02T02:56:56.534Z,10.00
2018-07-02T02:59:33.510Z,9.89
2018-07-02T03:02:09.688Z,9.87
2018-07-02T03:04:46.741Z,10.05
2018-07-02T03:07:22.597Z,10.06
2018-07-02T03:09:59.052Z,10.14
2018-07-02T03:12:36.348Z,10.05
2018-07-02T03:15:11.943Z,9.91
2018-07-02T03:17:48.882Z,9.86
2018-07-02T03:20:25.290Z,10.18
2018-07-02T03:23:01.268Z,10.15
2018-07-02T03:25:37.410Z,9.98
2018-07-02T03:28:14.182Z,9.91
2018-07-02T03:30:50.911Z,9.87
2018-07-02T03:33:26.976Z,9.79
2018-07-02T03:36:03.158Z,9.75
2018-07-02T03:38:40.361Z,9.66
2018-07-02T03:41:18.561Z,9.62
2018-07-02T03:43:56.136Z,9.62
2018-07-02T03:46:32.366Z,9.77
2018-07-02T03:49:08.829Z,9.81
2018-07-02T03:51:46.943Z,9.95
2018-07-02T03:54:23.923Z,10.05
2018-07-02T03:57:01.298Z,10.14
2018-07-02T03:59:37.814Z,10.28
2018-07-02T04:02:15.526Z,10.38
2018-07-02T04:04:51.820Z,10.52
2018-07-02T04:07:28.294Z,10.55
2018-07-02T04:10:04.435Z,10.65
2018-07-02T04:12:40.315Z,10.73
2018-07-02T04:15:16.016Z,10.87
2018-07-02T04:17:52.253Z,10.91
2018-07-02T04:20:27.960Z,10.95
2018-07-02T04:23:04.879Z,10.99
2018-07-02T04:25:41.141Z,11.31
2018-07-02T04:28:17.957Z,11.43
2018-07-02T04:30:54.077Z,11.46
2018-07-02T04:33:30.696Z,11.70
2018-07-02T04:36:06.413Z,11.78
2018-07-02T04:38:42.004Z,11.98
2018-07-02T04:41:18.122Z,12.09
2018-07-02T04:43:56.112Z,12.19
2018-07-02T04:46:31.999Z,12.29
2018-07-02T04:49:08.194Z,12.48
2018-07-02T04:51:44.021Z,12.64
2018-07-02T04:54:21.923Z,12.92
2018-07-02T04:56:59.509Z,13.12
2018-07-02T04:59:35.843Z,13.33
2018-07-02T05:02:12.445Z,13.42
2018-07-02T05:04:48.533Z,13.62
2018-07-02T05:07:24.906Z,13.69
2018-07-02T05:10:01.508Z,13.87
2018-07-02T05:12:38.378Z,13.96
2018-07-02T05:15:14.061Z,14.02
2018-07-02T05:18:22.576Z,14.14
2018-07-02T05:20:59.013Z,14.33
2018-07-02T05:23:35.361Z,14.44
2018-07-02T05:26:11.242Z,14.61
2018-07-02T05:28:48.865Z,14.78
2018-07-02T05:31:28.542Z,14.88
2018-07-02T05:34:04.773Z,15.03
2018-07-02T05:36:41.744Z,15.18
2018-07-02T05:39:18.823Z,15.37
2018-07-02T05:41:56.241Z,15.50
2018-07-02T05:44:32.323Z,15.65
2018-07-02T05:47:09.537Z,15.78
2018-07-02T05:49:46.028Z,15.93
2018-07-02T05:52:22.229Z,15.94
2018-07-02T05:54:58.674Z,16.02
2018-07-02T05:57:35.121Z,16.11
2018-07-02T06:00:12.231Z,16.23
2018-07-02T06:02:47.843Z,16.26
2018-07-02T06:08:35.672Z,16.47
2018-07-02T06:11:07.700Z,16.47
2018-07-02T06:13:38.754Z,16.69
2018-07-02T06:16:09.428Z,16.99
2018-07-02T06:18:40.181Z,17.20
2018-07-02T06:21:11.960Z,17.31
2018-07-02T06:23:42.482Z,17.36
2018-07-02T06:26:34.853Z,17.47
2018-07-02T06:29:09.855Z,17.71
2018-07-02T06:31:40.380Z,17.82
2018-07-02T06:34:11.739Z,17.78
2018-07-02T06:36:44.578Z,18.04
2018-07-02T06:39:15.058Z,18.13
2018-07-02T06:41:46.336Z,18.25
2018-07-02T06:44:16.663Z,18.36
2018-07-02T06:46:47.050Z,18.43
2018-07-02T06:49:18.309Z,18.38
2018-07-02T06:51:49.012Z,18.59
2018-07-02T06:54:20.924Z,18.76
2018-07-02T06:56:52.034Z,18.78
2018-07-02T06:59:23.162Z,18.94
2018-07-02T07:01:54.516Z,19.17
2018-07-02T07:04:25.271Z,19.25
2018-07-02T07:06:56.317Z,19.56
2018-07-02T07:09:27.412Z,19.49
2018-07-02T07:11:58.601Z,19.40
2018-07-02T07:14:30.236Z,19.62
2018-07-02T07:17:00.633Z,20.10
2018-07-02T07:19:31.371Z,20.17
2018-07-02T07:22:01.845Z,20.33
2018-07-02T07:24:33.430Z,20.78
2018-07-02T07:27:04.375Z,20.67
2018-07-02T07:29:34.885Z,20.86
2018-07-02T07:32:06.136Z,20.88
2018-07-02T07:34:36.683Z,20.94
2018-07-02T07:37:08.098Z,21.15
2018-07-02T07:39:38.350Z,21.66
2018-07-02T07:42:43.040Z,21.19
2018-07-02T07:45:15.400Z,22.11
2018-07-02T07:47:47.896Z,22.16
2018-07-02T07:50:18.567Z,22.76
2018-07-02T07:52:50.440Z,22.26
2018-07-02T07:55:21.345Z,22.63
2018-07-02T07:57:53.425Z,22.91
2018-07-02T08:00:25.194Z,23.01
2018-07-02T08:02:58.075Z,23.38
2018-07-02T08:05:30.568Z,23.16
2018-07-02T08:08:00.927Z,23.53
2018-07-02T08:10:33.562Z,23.66
2018-07-02T08:15:34.708Z,23.61
2018-07-02T08:18:07.079Z,23.88
2018-07-02T08:20:38.979Z,23.76
2018-07-02T08:23:09.201Z,23.11
2018-07-02T08:25:40.774Z,22.96
2018-07-02T08:28:11.953Z,23.41
2018-07-02T08:30:43.278Z,23.43
2018-07-02T08:33:13.799Z,24.15
2018-07-02T08:35:44.183Z,22.86
2018-07-02T08:38:15.705Z,23.26
2018-07-02T08:40:48.326Z,23.59
2018-07-02T08:43:18.862Z,24.76
2018-07-02T08:45:49.442Z,24.99
2018-07-02T08:48:19.756Z,25.35
2018-07-02T08:50:50.095Z,25.25
2018-07-02T08:53:20.621Z,24.90
2018-07-02T08:55:51.629Z,25.05
2018-07-02T08:58:22.265Z,25.73
2018-07-02T09:00:54.839Z,25.36
2018-07-02T09:03:25.889Z,26.09
2018-07-02T09:05:56.897Z,26.30
2018-07-02T09:08:28.981Z,26.00
2018-07-02T09:10:59.394Z,26.58
2018-07-02T09:13:31.565Z,27.58
2018-07-02T09:16:06.037Z,27.66
2018-07-02T09:18:38.441Z,27.63
2018-07-02T09:21:10.987Z,27.20
2018-07-02T09:23:42.745Z,27.40
2018-07-02T09:26:13.865Z,27.82
2018-07-02T09:28:46.497Z,27.66
2018-07-02T09:31:17.199Z,27.60
2018-07-02T09:33:49.744Z,28.81
2018-07-02T09:36:22.276Z,27.43
2018-07-02T09:38:54.750Z,28.54
2018-07-02T09:41:27.147Z,28.10
2018-07-02T09:43:59.030Z,28.19
2018-07-02T09:46:32.456Z,27.41
2018-07-02T09:49:09.147Z,26.58
2018-07-02T09:51:41.459Z,28.33
2018-07-02T09:54:12.086Z,28.33
2018-07-02T09:56:42.842Z,29.37
2018-07-02T09:59:17.958Z,28.61
2018-07-02T10:01:52.386Z,28.76
2018-07-02T10:04:30.676Z,29.26
2018-07-02T10:07:09.360Z,29.38
2018-07-02T10:09:49.595Z,29.06
2018-07-02T10:12:30.647Z,29.96
2018-07-02T10:15:05.348Z,31.56
2018-07-02T10:17:38.418Z,32.82
2018-07-02T10:20:10.215Z,32.31
2018-07-02T10:22:45.459Z,32.54
2018-07-02T10:25:19.068Z,31.97
2018-07-02T10:27:52.025Z,31.61
2018-07-02T10:30:42.103Z,32.51
2018-07-02T10:33:18.905Z,32.80
2018-07-02T10:36:03.167Z,33.83
2018-07-02T10:39:10.153Z,31.25
2018-07-02T10:41:59.915Z,31.84
2018-07-02T10:44:31.598Z,32.04
2018-07-02T10:47:07.671Z,33.42
2018-07-02T10:49:47.267Z,32.38
2018-07-02T10:52:24.149Z,32.30
2018-07-02T10:54:55.111Z,32.16
2018-07-02T10:57:27.095Z,32.42
2018-07-02T10:59:57.838Z,30.52
2018-07-02T11:02:28.792Z,32.64
2018-07-02T11:04:59.357Z,33.96
2018-07-02T11:07:33.902Z,32.44
2018-07-02T11:10:09.724Z,32.25
2018-07-02T11:12:46.877Z,31.58
2018-07-02T11:15:19.293Z,32.94
2018-07-02T11:17:51.818Z,33.37
2018-07-02T11:20:22.775Z,34.51
2018-07-02T11:22:55.226Z,35.34
2018-07-02T11:25:27.651Z,34.07
2018-07-02T11:27:59.866Z,33.13
2018-07-02T11:30:30.836Z,35.37
2018-07-02T11:33:03.503Z,34.92
2018-07-02T11:35:35.676Z,34.79
2018-07-02T11:38:12.655Z,34.70
2018-07-02T11:40:48.976Z,35.25
2018-07-02T11:43:21.746Z,35.63
2018-07-02T11:46:03.989Z,37.68
2018-07-02T11:51:38.495Z,37.79
2018-07-02T11:54:09.493Z,37.82
2018-07-02T11:56:40.398Z,36.94
2018-07-02T11:59:21.560Z,37.98
2018-07-02T12:02:14.130Z,38.18
2018-07-02T12:05:02.536Z,39.11
2018-07-02T12:08:09.227Z,37.16
2018-07-02T12:14:16.200Z,37.22
2018-07-02T12:23:27.010Z,35.90
2018-07-02T12:26:22.500Z,37.26
2018-07-02T12:29:04.622Z,39.30
2018-07-02T12:31:41.199Z,38.51
2018-07-02T12:34:19.578Z,39.88
2018-07-02T12:36:57.050Z,38.64
2018-07-02T12:39:29.450Z,39.18
2018-07-02T12:42:09.760Z,39.50
2018-07-02T12:44:47.980Z,39.49
2018-07-02T12:47:21.931Z,38.42
2018-07-02T12:49:57.820Z,39.08
2018-07-02T12:52:41.416Z,40.82
2018-07-02T12:55:29.884Z,40.62
2018-07-02T13:04:11.129Z,37.98
2018-07-02T13:09:49.614Z,38.26
2018-07-02T13:12:23.203Z,40.31
2018-07-02T13:14:54.175Z,41.24
2018-07-02T13:28:54.320Z,43.15
2018-07-02T13:31:25.121Z,41.76
2018-07-02T13:34:06.843Z,40.50
2018-07-02T13:36:45.391Z,40.18
2018-07-02T13:39:33.668Z,41.17
2018-07-02T13:42:07.045Z,42.72
2018-07-02T13:44:42.077Z,43.74
2018-07-02T13:47:17.657Z,44.71
2018-07-02T13:50:00.167Z,43.93
2018-07-02T13:59:26.836Z,42.18
2018-07-02T14:01:57.773Z,43.24
2018-07-02T14:04:31.509Z,40.55
2018-07-02T14:10:01.341Z,40.44
2018-07-02T14:14:50.329Z,40.35
2018-07-02T14:17:20.894Z,38.54
2018-07-02T14:20:02.570Z,39.58
2018-07-02T14:22:43.630Z,38.91
2018-07-02T14:25:22.000Z,38.29
2018-07-02T14:27:56.897Z,39.31
2018-07-02T14:30:29.544Z,40.25
2018-07-02T14:33:04.246Z,41.97
2018-07-02T14:35:51.590Z,40.38
2018-07-02T14:38:32.856Z,40.91
2018-07-02T14:41:39.272Z,43.40
2018-07-02T14:44:19.384Z,42.15
2018-07-02T14:47:01.393Z,43.11
2018-07-02T14:49:40.266Z,41.05
2018-07-02T14:52:19.893Z,41.69
2018-07-02T14:56:34.025Z,41.51
2018-07-02T14:59:04.782Z,41.52
2018-07-02T15:01:35.948Z,39.85
2018-07-02T15:04:07.880Z,40.26
2018-07-02T15:06:39.900Z,40.46
2018-07-02T15:09:23.534Z,39.68
2018-07-02T15:12:02.087Z,40.92
2018-07-02T15:14:37.442Z,42.34
2018-07-02T15:17:14.164Z,41.37
2018-07-02T15:19:45.785Z,42.93
2018-07-02T15:22:16.817Z,41.80
2018-07-02T15:24:48.736Z,41.30
2018-07-02T15:27:26.424Z,42.39
2018-07-02T15:29:57.789Z,42.45
2018-07-02T15:32:28.248Z,42.40
2018-07-02T15:34:59.903Z,40.11
2018-07-02T15:37:30.333Z,40.44
2018-07-02T15:40:01.162Z,42.30
2018-07-02T15:42:32.857Z,42.87
2018-07-02T15:45:11.412Z,42.32
2018-07-02T15:47:41.759Z,43.29
2018-07-02T15:50:12.347Z,41.37
2018-07-02T15:52:44.599Z,40.69
2018-07-02T15:55:15.751Z,42.41
2018-07-02T15:57:48.844Z,41.92
2018-07-02T16:00:29.488Z,41.11
2018-07-02T16:03:08.107Z,41.61
2018-07-02T16:05:48.918Z,39.51
2018-07-02T16:08:31.705Z,38.05
2018-07-02T16:11:12.939Z,37.10
2018-07-02T16:13:58.179Z,38.09
2018-07-02T16:16:42.384Z,38.99
2018-07-02T16:19:29.451Z,38.33
2018-07-02T16:22:15.432Z,38.74
2018-07-02T16:24:51.313Z,38.17
2018-07-02T16:27:23.297Z,39.21
2018-07-02T16:29:56.339Z,39.85
2018-07-02T16:32:32.973Z,39.44
2018-07-02T16:35:13.205Z,38.81
2018-07-02T16:38:05.736Z,38.25
2018-07-02T16:40:38.821Z,38.10
2018-07-02T16:43:10.727Z,37.76
2018-07-02T16:45:44.143Z,37.95
2018-07-02T16:48:17.015Z,37.07
2018-07-02T16:50:51.204Z,37.89
2018-07-02T16:53:22.559Z,37.85
2018-07-02T16:55:56.085Z,37.69
2018-07-02T16:58:46.979Z,37.87
2018-07-02T17:01:24.990Z,36.02
2018-07-02T17:03:56.739Z,35.45
2018-07-02T17:06:30.133Z,35.34
2018-07-02T17:09:02.018Z,34.63
2018-07-02T17:11:38.560Z,33.98
2018-07-02T17:14:11.027Z,34.27
2018-07-02T17:16:43.712Z,32.91
2018-07-02T17:19:15.672Z,30.40
2018-07-02T17:21:49.184Z,29.17
2018-07-02T17:24:24.104Z,28.59
2018-07-02T17:26:55.627Z,28.18
2018-07-02T17:29:27.510Z,27.84
2018-07-02T17:32:02.481Z,27.53
2018-07-02T17:34:38.730Z,27.38
2018-07-02T17:37:11.684Z,27.33
2018-07-02T17:39:44.448Z,27.28
2018-07-02T17:42:19.393Z,27.11
2018-07-02T17:44:51.475Z,27.04
2018-07-02T17:47:21.769Z,26.95
2018-07-02T17:49:52.394Z,26.89
2018-07-02T17:52:25.829Z,26.58
2018-07-02T17:54:59.231Z,26.35
2018-07-02T17:57:29.756Z,26.16
2018-07-02T18:00:00.781Z,26.19
2018-07-02T18:02:31.527Z,26.10
2018-07-02T18:05:04.131Z,26.05
2018-07-02T18:07:35.357Z,25.93
2018-07-02T18:10:07.685Z,25.81
2018-07-02T18:12:38.743Z,25.74
2018-07-02T18:15:09.903Z,25.59
2018-07-02T18:17:40.957Z,25.46
2018-07-02T18:20:13.276Z,25.34
2018-07-02T18:22:43.829Z,25.23
2018-07-02T18:25:14.183Z,25.13
2018-07-02T18:27:45.843Z,24.98
2018-07-02T18:30:16.207Z,24.81
2018-07-02T18:32:47.723Z,24.60
2018-07-02T18:35:23.703Z,24.51
2018-07-02T18:37:54.307Z,24.43
2018-07-02T18:40:26.005Z,24.38
2018-07-02T18:42:57.807Z,24.27
2018-07-02T18:45:28.581Z,24.08
2018-07-02T18:47:59.476Z,23.96
2018-07-02T18:50:33.839Z,23.94
2018-07-02T18:53:04.126Z,23.83
2018-07-02T18:55:34.553Z,23.61
2018-07-02T18:58:06.038Z,23.42
2018-07-02T19:00:38.254Z,23.26
2018-07-02T19:03:08.841Z,23.04
2018-07-02T19:05:40.890Z,22.95
2018-07-02T19:08:11.428Z,22.93
2018-07-02T19:10:42.526Z,22.76
2018-07-02T19:13:13.939Z,22.76
2018-07-02T19:15:44.440Z,22.69
2018-07-02T19:18:14.818Z,22.71
2018-07-02T19:20:45.113Z,22.78
2018-07-02T19:23:16.454Z,22.58
2018-07-02T19:25:46.930Z,22.48
2018-07-02T19:28:17.468Z,22.40
2018-07-02T19:30:48.115Z,22.29
2018-07-02T19:33:19.168Z,22.35
2018-07-02T19:35:51.216Z,22.09
2018-07-02T19:38:22.506Z,22.13
2018-07-02T19:40:53.928Z,22.02
2018-07-02T19:43:26.156Z,21.92
2018-07-02T19:45:57.236Z,21.70
2018-07-02T19:48:28.569Z,21.81
2018-07-02T19:50:59.804Z,21.51
2018-07-02T19:53:41.396Z,21.50
2018-07-02T19:56:12.604Z,21.53
2018-07-02T19:58:43.514Z,21.56
2018-07-02T20:01:15.152Z,21.44
2018-07-02T20:03:45.731Z,21.33
2018-07-02T20:06:16.256Z,21.39
2018-07-02T20:08:46.805Z,21.25
2018-07-02T20:11:17.438Z,21.12
2018-07-02T20:13:47.634Z,21.01
2018-07-02T20:16:19.145Z,20.83
2018-07-02T20:18:49.431Z,20.77
2018-07-02T20:21:21.312Z,20.67
2018-07-02T20:23:52.871Z,20.68
2018-07-02T20:26:24.061Z,20.53
2018-07-02T20:28:55.583Z,20.42
2018-07-02T20:31:27.379Z,20.29
2018-07-02T20:33:58.952Z,20.34
2018-07-02T20:36:30.750Z,20.16
2018-07-02T20:39:01.406Z,20.05
2018-07-02T20:41:31.981Z,20.13
2018-07-02T20:44:03.361Z,20.11
2018-07-02T20:46:35.861Z,20.01
2018-07-02T20:49:06.320Z,19.84
2018-07-02T20:51:37.351Z,19.82
2018-07-02T20:54:07.743Z,19.91
2018-07-02T20:56:39.654Z,19.97
2018-07-02T20:59:10.683Z,19.71
2018-07-02T21:01:41.010Z,19.62
2018-07-02T21:04:12.051Z,19.57
2018-07-02T21:06:42.581Z,19.44
2018-07-02T21:09:14.065Z,19.26
2018-07-02T21:11:44.581Z,19.29
2018-07-02T21:14:15.379Z,19.17
2018-07-02T21:16:46.604Z,19.33
2018-07-02T21:19:17.303Z,19.27
2018-07-02T21:21:47.605Z,19.22
2018-07-02T21:24:17.807Z,19.23
2018-07-02T21:26:48.408Z,19.10
2018-07-02T21:29:19.515Z,19.03
2018-07-02T21:31:51.533Z,18.87
2018-07-02T21:34:24.041Z,18.81
2018-07-02T21:36:54.948Z,18.68
2018-07-02T21:39:25.632Z,18.51
2018-07-02T21:41:56.732Z,18.21
2018-07-02T21:44:27.667Z,18.12
2018-07-02T21:46:58.953Z,18.08
2018-07-02T21:49:29.431Z,17.92
2018-07-02T21:52:00.526Z,17.79
2018-07-02T21:54:31.035Z,17.80
2018-07-02T21:57:02.155Z,17.80
2018-07-02T21:59:33.247Z,17.68
2018-07-02T22:02:06.891Z,17.81
2018-07-02T22:04:37.492Z,17.72
2018-07-02T22:07:08.059Z,17.73
2018-07-02T22:09:38.641Z,17.77
2018-07-02T22:12:09.603Z,17.62
2018-07-02T22:14:42.519Z,17.56
2018-07-02T22:17:13.710Z,17.59
2018-07-02T22:19:44.731Z,17.65
2018-07-02T22:22:16.770Z,17.69
2018-07-02T22:24:47.280Z,17.67
2018-07-02T22:27:18.994Z,17.55
2018-07-02T22:29:51.294Z,17.38
2018-07-02T22:32:24.598Z,17.20
2018-07-02T22:34:54.925Z,17.30
2018-07-02T22:37:26.760Z,17.39
2018-07-02T22:39:58.901Z,17.25
2018-07-02T22:42:31.113Z,17.03
2018-07-02T22:45:02.077Z,16.99
2018-07-02T22:47:33.660Z,17.16
2018-07-02T22:50:04.044Z,17.34
2018-07-02T22:52:34.797Z,17.28
2018-07-02T22:55:07.632Z,17.16
2018-07-02T22:57:39.123Z,17.10
2018-07-02T23:00:11.406Z,16.98
2018-07-02T23:02:42.699Z,17.12
2018-07-02T23:05:14.350Z,17.04
2018-07-02T23:07:45.528Z,17.21
2018-07-02T23:10:16.182Z,17.09
2018-07-02T23:12:47.842Z,17.08
2018-07-02T23:15:18.210Z,16.87
2018-07-02T23:17:49.269Z,16.55
2018-07-02T23:20:19.866Z,16.36
2018-07-02T23:23:02.397Z,16.23
2018-07-02T23:25:33.518Z,16.14
2018-07-02T23:28:04.942Z,16.03
2018-07-02T23:30:35.682Z,15.91
2018-07-02T23:33:06.077Z,15.86
2018-07-02T23:35:36.610Z,15.62
2018-07-02T23:38:07.749Z,15.67
2018-07-02T23:40:39.766Z,15.60
2018-07-02T23:43:11.336Z,15.71
2018-07-02T23:45:42.402Z,15.80
2018-07-02T23:48:13.874Z,15.71
2018-07-02T23:50:50.400Z,15.79
2018-07-02T23:53:21.886Z,15.57
2018-07-02T23:55:53.124Z,15.59
2018-07-02T23:58:23.833Z,15.39
